M/V No Buoys — ZGFL5 — position and weather

sailwx.info

Track history (hours):
 
Tides and Currents Weather Stations Pressure Air Temp Water Temp Dewpoint Dewpoint Depression Visibility Wind Speed Wind Dir Waves Ship Positions

M/V No Buoys

Last reported at 2017-Nov-24 23:53 UTC. Time now 2017-Dec-18 13:05 UTC.
Position N 26°07' W 079°41'.
Warning: this ship's position is 23 days out of date.

Length 45 m; draft 2.5 m.

Type: Pleasure craft. MMSI: 319124000.

Date/timePositionNaut miles runAvg speedWind from/ knotsBaromVisibWave heightAir tempDewpointWater temp
2017-Nov-24 23:53N 26°07' W 079°41'410.0
2017-Nov-24 23:30N 26°06' W 079°46'5 9.9
2017-Nov-24 23:00N 26°06' W 079°51'5 9.6
2017-Nov-24 22:30N 26°06' W 079°57'510.1
2017-Nov-24 22:00N 26°06' W 080°02'4 8.2
2017-Nov-24 21:30N 26°06' W 080°07'1 2.0
2017-Nov-24 21:00N 26°06' W 080°07'1 2.3
2017-Nov-24 20:30N 26°07' W 080°06'1 1.1
2017-Nov-24 19:46N 26°08' W 080°07'0 0.0
2017-Nov-24 19:25N 26°08' W 080°07'  
Track history (hours):
 
Tides and Currents Weather Stations Pressure Air Temp Water Temp Dewpoint Dewpoint Depression Visibility Wind Speed Wind Dir Waves Ship Positions

M/V No Buoys

Last reported at 2017-Nov-24 23:53 UTC. Time now 2017-Dec-18 13:05 UTC.
Position N 26°07' W 079°41'.
Warning: this ship's position is 23 days out of date.

Length 45 m; draft 2.5 m.

Type: Pleasure craft. MMSI: 319124000.

Date/timePositionNaut miles runAvg speedWind from/ knotsBaromVisibWave heightAir tempDewpointWater temp
2017-Nov-24 23:53N 26°07' W 079°41'410.0
2017-Nov-24 23:30N 26°06' W 079°46'5 9.9
2017-Nov-24 23:00N 26°06' W 079°51'5 9.6
2017-Nov-24 22:30N 26°06' W 079°57'510.1
2017-Nov-24 22:00N 26°06' W 080°02'4 8.2
2017-Nov-24 21:30N 26°06' W 080°07'1 2.0
2017-Nov-24 21:00N 26°06' W 080°07'1 2.3
2017-Nov-24 20:30N 26°07' W 080°06'1 1.1
2017-Nov-24 19:46N 26°08' W 080°07'0 0.0
2017-Nov-24 19:25N 26°08' W 080°07'  

Dump ship's entire track history